createdAt,value
2019-03-06T00:03:36.311Z,6.22
2019-03-06T00:09:31.337Z,6.5
2019-03-06T00:15:26.328Z,6.63
2019-03-06T00:21:21.313Z,7.63
2019-03-06T00:27:16.331Z,7.6
2019-03-06T00:33:11.339Z,8.55
2019-03-06T00:39:06.343Z,9.81
2019-03-06T00:45:01.339Z,10.86
2019-03-06T00:50:56.388Z,9.64
2019-03-06T00:56:51.380Z,9.55
2019-03-06T01:02:46.377Z,9.64
2019-03-06T01:08:41.324Z,9.49
2019-03-06T01:14:36.335Z,9.22
2019-03-06T01:20:31.330Z,8.28
2019-03-06T01:26:26.345Z,8.85
2019-03-06T01:32:21.350Z,9.8
2019-03-06T01:38:16.356Z,9
2019-03-06T01:44:11.388Z,10.55
2019-03-06T01:50:06.355Z,12.57
2019-03-06T01:56:01.409Z,10.69
2019-03-06T02:01:56.390Z,10.75
2019-03-06T02:07:51.363Z,10.13
2019-03-06T02:13:46.380Z,11.19
2019-03-06T02:19:41.397Z,10.71
2019-03-06T02:25:36.449Z,11.52
2019-03-06T02:31:31.417Z,9.33
2019-03-06T02:37:26.470Z,10.89
2019-03-06T02:43:21.425Z,11.23
2019-03-06T02:49:16.402Z,10.15
2019-03-06T02:55:11.391Z,10.28
2019-03-06T03:01:06.415Z,10.77
2019-03-06T03:07:01.401Z,9.7
2019-03-06T03:12:56.459Z,10.31
2019-03-06T03:18:51.454Z,9.2
2019-03-06T03:24:46.444Z,9.69
2019-03-06T03:30:41.439Z,9.67
2019-03-06T03:36:36.443Z,9.58
2019-03-06T03:42:31.455Z,9.26
2019-03-06T03:48:26.452Z,8.45
2019-03-06T03:54:21.434Z,8.26
2019-03-06T04:00:16.423Z,8.53
2019-03-06T04:06:11.428Z,8.86
2019-03-06T04:12:06.440Z,8.77
2019-03-06T04:18:01.453Z,8.92
2019-03-06T04:23:56.431Z,9.61
2019-03-06T04:29:51.441Z,9.19
2019-03-06T04:35:46.479Z,9
2019-03-06T04:41:41.459Z,9.6
2019-03-06T04:47:36.450Z,8.76
2019-03-06T04:53:31.469Z,8.7
2019-03-06T04:59:26.504Z,9.11
2019-03-06T05:05:21.450Z,8.89
2019-03-06T05:11:16.448Z,8.31
2019-03-06T05:17:11.452Z,8.06
2019-03-06T05:23:06.468Z,8.2
2019-03-06T05:29:01.513Z,9.99
2019-03-06T05:34:56.497Z,11.83
2019-03-06T05:40:51.491Z,11.59
2019-03-06T05:46:46.472Z,11.15
2019-03-06T05:52:41.494Z,12.1
2019-03-06T05:58:36.494Z,11.75
2019-03-06T06:04:31.486Z,12.57
2019-03-06T06:10:26.470Z,12.36
2019-03-06T06:16:21.492Z,12.26
2019-03-06T06:22:16.556Z,14.6
2019-03-06T06:28:11.571Z,11.74
2019-03-06T06:34:06.484Z,10.25
2019-03-06T06:40:01.497Z,11.25
2019-03-06T06:45:56.518Z,10.82
2019-03-06T06:51:51.511Z,10.85
2019-03-06T06:57:46.510Z,10.55
2019-03-06T07:03:41.538Z,9.94
2019-03-06T07:09:36.512Z,12.82
2019-03-06T07:15:31.503Z,10.71
2019-03-06T07:21:26.532Z,10.13
2019-03-06T07:27:21.529Z,10.49
2019-03-06T07:33:16.548Z,9.54
2019-03-06T07:39:11.528Z,8.9
2019-03-06T07:45:06.526Z,10.26
2019-03-06T07:51:01.549Z,18.23
2019-03-06T07:56:56.565Z,18.62
2019-03-06T08:02:51.543Z,17.23
2019-03-06T08:08:46.562Z,18.09
2019-03-06T08:14:41.541Z,18.63
2019-03-06T08:20:36.571Z,17.33
2019-03-06T08:26:31.592Z,17.13
2019-03-06T08:32:26.582Z,16.6
2019-03-06T08:38:21.582Z,15.2
2019-03-06T08:44:16.549Z,13.81
2019-03-06T08:50:11.581Z,14.6
2019-03-06T08:56:06.603Z,13.12
2019-03-06T09:02:01.575Z,12.42
2019-03-06T09:07:56.594Z,12.88
2019-03-06T09:13:51.571Z,10.89
2019-03-06T09:19:46.589Z,12.45
2019-03-06T09:25:41.576Z,12.43
2019-03-06T09:31:36.600Z,7.33
2019-03-06T09:37:31.608Z,7.98
2019-03-06T09:43:26.636Z,4.79
2019-03-06T09:49:21.636Z,4.52
2019-03-06T09:55:16.601Z,5.33
2019-03-06T10:01:11.664Z,5.32
2019-03-06T10:07:06.615Z,5.38
2019-03-06T10:13:03.436Z,7.46
2019-03-06T10:18:56.642Z,5.07
2019-03-06T10:24:51.623Z,5.96
2019-03-06T10:30:46.622Z,4.62
2019-03-06T10:36:41.644Z,4.87
2019-03-06T10:42:36.649Z,4
2019-03-06T10:48:31.615Z,3.7
2019-03-06T10:54:26.628Z,3
2019-03-06T11:00:21.651Z,3.93
2019-03-06T11:06:16.638Z,2.61
2019-03-06T11:12:11.665Z,8.28
2019-03-06T11:18:06.648Z,2.82
2019-03-06T11:24:01.671Z,2.48
2019-03-06T11:29:56.656Z,19.33
2019-03-06T11:35:51.702Z,15.82
2019-03-06T11:41:46.690Z,10.06
2019-03-06T11:47:41.669Z,2.11
2019-03-06T11:53:36.666Z,5.77
2019-03-06T11:59:31.693Z,17.05
2019-03-06T12:05:26.708Z,2.78
2019-03-06T12:11:21.690Z,3.49
2019-03-06T12:17:16.734Z,2.26
2019-03-06T12:23:11.713Z,2.09
2019-03-06T12:29:06.677Z,1.87
2019-03-06T12:35:01.718Z,3.12
2019-03-06T12:40:56.729Z,2.33
2019-03-06T12:46:51.702Z,2.22
2019-03-06T12:52:46.701Z,3.3
2019-03-06T12:58:41.714Z,2.83
2019-03-06T13:04:36.729Z,14.02
2019-03-06T13:10:31.717Z,2.6
2019-03-06T13:16:26.734Z,2.89
2019-03-06T13:22:21.730Z,2.46
2019-03-06T13:28:16.723Z,2.09
2019-03-06T13:34:11.759Z,2.05
2019-03-06T13:40:06.728Z,2.29
2019-03-06T13:46:01.767Z,3.7
2019-03-06T13:51:56.771Z,2.51
2019-03-06T13:57:51.737Z,13.48
2019-03-06T14:03:46.748Z,11.4
2019-03-06T14:09:41.730Z,2.73
2019-03-06T14:15:36.743Z,2.25
2019-03-06T14:21:31.772Z,2.57
2019-03-06T14:27:26.772Z,2.43
2019-03-06T14:33:21.772Z,2.18
2019-03-06T14:39:16.775Z,1.93
2019-03-06T14:45:11.789Z,3.52
2019-03-06T14:51:06.782Z,2.78
2019-03-06T14:57:01.814Z,2.12
2019-03-06T15:02:56.793Z,2.16
2019-03-06T15:08:51.781Z,2.11
2019-03-06T15:14:46.793Z,2.45
2019-03-06T15:20:41.789Z,2.4
2019-03-06T15:26:36.804Z,5.65
2019-03-06T15:32:31.856Z,2.95
2019-03-06T15:38:26.827Z,2.53
2019-03-06T15:44:21.792Z,12.42
2019-03-06T15:50:16.800Z,2.66
2019-03-06T15:56:11.813Z,2.31
2019-03-06T16:02:06.819Z,2.29
2019-03-06T16:08:01.800Z,2.2
2019-03-06T16:13:56.811Z,2.16
2019-03-06T16:19:51.841Z,2.99
2019-03-06T16:25:46.831Z,3.54
2019-03-06T16:31:41.839Z,3.99
2019-03-06T16:37:36.815Z,3.78
2019-03-06T16:43:31.903Z,4.69
2019-03-06T16:49:26.819Z,17.67
2019-03-06T16:55:21.848Z,6.78
2019-03-06T17:01:16.854Z,7.08
2019-03-06T17:07:11.881Z,9.34
2019-03-06T17:13:06.880Z,12
2019-03-06T17:19:01.907Z,21.21
2019-03-06T17:24:56.858Z,13.81
2019-03-06T17:30:51.872Z,22.85
2019-03-06T17:36:46.911Z,25.52
2019-03-06T17:42:41.908Z,19.41
2019-03-06T17:48:36.884Z,15.67
2019-03-06T17:54:31.880Z,16.92
2019-03-06T18:00:26.882Z,15.6
2019-03-06T18:06:21.902Z,24.2
2019-03-06T18:12:16.908Z,14.58
2019-03-06T18:18:11.894Z,34.75
2019-03-06T18:24:06.881Z,18.11
2019-03-06T18:30:01.934Z,7.39
2019-03-06T18:35:56.872Z,6.13
2019-03-06T18:41:51.893Z,6
2019-03-06T18:47:46.909Z,6.3
2019-03-06T18:53:41.904Z,7.33
2019-03-06T18:59:36.928Z,9.2
2019-03-06T19:05:31.923Z,9.35
2019-03-06T19:11:26.919Z,14.08
2019-03-06T19:17:21.961Z,13.23
2019-03-06T19:23:16.915Z,11.08
2019-03-06T19:29:11.910Z,15.79
2019-03-06T19:35:06.940Z,10.13
2019-03-06T19:41:01.948Z,10.66
2019-03-06T19:46:56.981Z,14.13
2019-03-06T19:52:51.922Z,10.58
2019-03-06T19:58:46.932Z,8.89
2019-03-06T20:04:41.948Z,9.39
2019-03-06T20:10:36.951Z,8.37
2019-03-06T20:16:31.936Z,8.89
2019-03-06T20:22:26.939Z,7.19
2019-03-06T20:28:21.956Z,9
2019-03-06T20:34:16.949Z,6.16
2019-03-06T20:40:12.016Z,14.96
2019-03-06T20:46:06.977Z,7
2019-03-06T20:52:01.970Z,7.17
2019-03-06T20:57:56.975Z,7.41
2019-03-06T21:03:51.968Z,8.57
2019-03-06T21:09:46.992Z,14.52
2019-03-06T21:15:42.020Z,11
2019-03-06T21:21:36.995Z,7.86
2019-03-06T21:27:31.983Z,8.73
2019-03-06T21:33:26.994Z,8.36
2019-03-06T21:39:21.989Z,7.03
2019-03-06T21:45:16.993Z,6.06
2019-03-06T21:51:12.012Z,7.28
2019-03-06T21:57:07.000Z,6.39
2019-03-06T22:03:02.028Z,6.94
2019-03-06T22:08:57.070Z,11.4
2019-03-06T22:14:52.013Z,9.74
2019-03-06T22:20:47.024Z,6.81
2019-03-06T22:26:42.034Z,8
2019-03-06T22:32:37.054Z,7.79
2019-03-06T22:38:32.029Z,6.61
2019-03-06T22:44:27.012Z,6.18
2019-03-06T22:50:22.032Z,5.92
2019-03-06T22:56:17.054Z,7.87
2019-03-06T23:02:12.061Z,5.58
2019-03-06T23:08:07.052Z,6.39
2019-03-06T23:14:02.078Z,6.07
2019-03-06T23:19:57.049Z,4.93
2019-03-06T23:25:52.047Z,5.99
2019-03-06T23:31:47.060Z,5.81
2019-03-06T23:37:42.054Z,5.7
2019-03-06T23:43:37.047Z,6.03
2019-03-06T23:49:32.078Z,5.94
2019-03-06T23:55:27.045Z,5.51
